Time;durP1;ratioP1;P1;durP2;ratioP2;P2;SDS_P1;SDS_P2;PMS_P1;PMS_P2;Temp;Humidity;BMP_temperature;BMP_pressure;BME280_temperature;BME280_humidity;BME280_pressure;Samples;Min_cycle;Max_cycle;Signal;HPM_P1;HPM_P2
2024/03/13 00:01:53;;;;;;;17.75;11.55;;;9.50;99.90;;;;;;5088989;28;20034;-77
2024/03/13 00:04:19;;;;;;;19.80;11.95;;;9.50;99.90;;;;;;5089856;28;20485;-77
2024/03/13 00:06:46;;;;;;;21.15;12.45;;;9.40;99.90;;;;;;5088861;28;20031;-77
2024/03/13 00:09:16;;;;;;;21.10;12.65;;;9.50;99.90;;;;;;5089751;28;20031;-77
2024/03/13 00:11:41;;;;;;;24.30;14.40;;;9.50;99.90;;;;;;5089139;28;20016;-77
2024/03/13 00:14:08;;;;;;;25.70;13.98;;;9.40;99.90;;;;;;5089671;28;20054;-76
2024/03/13 00:16:34;;;;;;;21.55;13.23;;;9.40;99.90;;;;;;5070754;28;20028;-76
2024/03/13 00:18:59;;;;;;;22.42;12.82;;;9.50;99.90;;;;;;5089372;28;20077;-76
2024/03/13 00:21:34;;;;;;;26.70;14.23;;;9.50;99.90;;;;;;5083910;28;20035;-76
2024/03/13 00:24:00;;;;;;;23.67;12.93;;;9.50;99.90;;;;;;5081525;28;20059;-76
2024/03/13 00:26:25;;;;;;;21.70;12.95;;;9.40;99.90;;;;;;5089015;28;20035;-76
2024/03/13 00:28:51;;;;;;;22.67;13.40;;;9.40;99.90;;;;;;5089767;28;20028;-75
2024/03/13 00:31:18;;;;;;;21.75;13.23;;;9.40;99.90;;;;;;5089192;28;20081;-76
2024/03/13 00:33:46;;;;;;;21.17;13.18;;;9.40;99.90;;;;;;5071512;28;20024;-76
2024/03/13 00:36:12;;;;;;;22.85;12.77;;;9.40;99.90;;;;;;5089306;28;20035;-76
2024/03/13 00:38:37;;;;;;;20.25;11.90;;;9.40;99.90;;;;;;5089084;28;20020;-75
2024/03/13 00:41:03;;;;;;;18.65;11.13;;;9.40;99.90;;;;;;5088869;28;20532;-75
2024/03/13 00:43:30;;;;;;;24.98;12.55;;;9.40;99.90;;;;;;5070810;28;20077;-75
2024/03/13 00:45:56;;;;;;;18.50;11.27;;;9.40;99.90;;;;;;5089162;28;20031;-75
2024/03/13 00:48:22;;;;;;;18.17;11.20;;;9.40;99.90;;;;;;5088948;28;20070;-75
2024/03/13 00:50:48;;;;;;;18.77;11.15;;;9.40;99.90;;;;;;5070214;28;20584;-75
2024/03/13 00:53:14;;;;;;;16.15;10.52;;;9.40;99.90;;;;;;5080492;28;20554;-75
2024/03/13 00:55:41;;;;;;;18.73;10.75;;;9.40;99.90;;;;;;5070424;28;20035;-76
2024/03/13 00:58:08;;;;;;;15.57;10.32;;;9.40;99.90;;;;;;5088354;28;20005;-75
2024/03/13 01:00:37;;;;;;;18.02;11.05;;;9.40;99.90;;;;;;5088852;28;20363;-75
2024/03/13 01:03:03;;;;;;;18.13;11.30;;;9.40;99.90;;;;;;5088577;28;20016;-75
2024/03/13 01:05:31;;;;;;;19.67;11.18;;;9.40;99.90;;;;;;5088914;28;20089;-75
2024/03/13 01:07:56;;;;;;;18.63;11.00;;;9.40;99.90;;;;;;5070088;28;20024;-76
2024/03/13 01:10:24;;;;;;;18.10;10.77;;;9.50;99.90;;;;;;5088897;28;20035;-75
2024/03/13 01:12:50;;;;;;;18.10;10.55;;;9.40;99.90;;;;;;5069430;28;20028;-75
2024/03/13 01:15:16;;;;;;;18.50;10.95;;;9.40;99.90;;;;;;5088411;28;20035;-75
2024/03/13 01:17:43;;;;;;;18.42;12.00;;;9.40;99.90;;;;;;5069224;28;20833;-75
2024/03/13 01:20:09;;;;;;;16.85;10.30;;;9.40;99.90;;;;;;5088489;28;20024;-75
2024/03/13 01:22:37;;;;;;;21.58;11.40;;;9.40;99.90;;;;;;5069574;28;20032;-75
2024/03/13 01:25:05;;;;;;;19.63;11.30;;;9.40;99.90;;;;;;5088455;28;20032;-75
2024/03/13 01:27:31;;;;;;;18.13;11.07;;;9.40;99.90;;;;;;5088002;28;20024;-75
2024/03/13 01:29:56;;;;;;;18.25;11.35;;;9.40;99.90;;;;;;5087915;28;20078;-75
2024/03/13 01:32:23;;;;;;;17.25;10.02;;;9.40;99.90;;;;;;5087331;28;20020;-75
2024/03/13 01:34:49;;;;;;;19.55;11.13;;;9.40;99.90;;;;;;5069690;28;20023;-74
2024/03/13 01:40:04;;;;;;;17.95;10.77;;;9.40;99.90;;;;;;5088286;28;20043;-75
2024/03/13 01:56:58;;;;;;;20.73;10.35;;;9.40;99.90;;;;;;5094315;28;20070;-71
2024/03/13 01:59:37;;;;;;;17.02;10.65;;;9.40;99.90;;;;;;5076187;28;20040;-74
2024/03/13 02:04:48;;;;;;;18.23;10.57;;;9.40;99.90;;;;;;5077674;28;20109;-75
2024/03/13 02:07:18;;;;;;;19.65;9.73;;;9.40;99.90;;;;;;5070674;28;20028;-74
2024/03/13 02:09:44;;;;;;;20.85;10.88;;;9.40;99.90;;;;;;5092280;28;20027;-75
2024/03/13 02:12:10;;;;;;;19.35;10.55;;;9.40;99.90;;;;;;5069048;28;20077;-74
2024/03/13 02:14:36;;;;;;;20.95;10.93;;;9.40;99.90;;;;;;5088452;28;20062;-75
2024/03/13 02:17:02;;;;;;;21.35;11.25;;;9.40;99.90;;;;;;5087861;28;20024;-75
2024/03/13 02:19:31;;;;;;;20.90;10.45;;;9.40;99.90;;;;;;5069869;28;20016;-75
2024/03/13 02:22:00;;;;;;;22.73;10.88;;;9.40;99.90;;;;;;5087875;28;20024;-75
2024/03/13 02:24:26;;;;;;;26.13;11.43;;;9.40;99.90;;;;;;5087872;28;20088;-74
2024/03/13 02:26:52;;;;;;;24.05;10.90;;;9.40;99.90;;;;;;5087485;28;20107;-74
2024/03/13 02:29:19;;;;;;;30.05;11.15;;;9.40;99.90;;;;;;5087824;28;20603;-74
2024/03/13 02:31:44;;;;;;;24.35;11.00;;;9.50;99.90;;;;;;5073041;28;20046;-75
2024/03/13 02:34:10;;;;;;;26.45;11.25;;;9.40;99.90;;;;;;5083165;28;20063;-74
2024/03/13 02:36:36;;;;;;;33.25;12.10;;;9.50;99.90;;;;;;5084762;28;20016;-74
2024/03/13 02:39:02;;;;;;;24.55;10.98;;;9.50;99.90;;;;;;5087007;28;20094;-73
2024/03/13 02:41:27;;;;;;;35.80;11.50;;;9.50;99.90;;;;;;5086856;28;20049;-75
2024/03/13 02:43:57;;;;;;;35.13;12.05;;;9.50;99.90;;;;;;5086767;28;20012;-75
2024/03/13 02:46:23;;;;;;;26.10;10.60;;;9.50;99.90;;;;;;5086828;28;20035;-75
2024/03/13 02:48:49;;;;;;;31.52;12.80;;;9.50;99.90;;;;;;5086179;28;20024;-75
2024/03/13 02:51:15;;;;;;;38.47;12.05;;;9.50;99.90;;;;;;5086596;28;20102;-75
2024/03/13 02:53:41;;;;;;;40.53;12.70;;;9.60;99.90;;;;;;5067842;28;20024;-75
2024/03/13 02:56:10;;;;;;;46.10;13.15;;;9.60;99.90;;;;;;5086711;28;20024;-75
2024/03/13 02:58:36;;;;;;;39.67;12.68;;;9.60;99.90;;;;;;5086116;28;20035;-75
2024/03/13 03:01:02;;;;;;;46.17;13.73;;;9.60;99.90;;;;;;5086709;28;20024;-74
2024/03/13 03:03:30;;;;;;;42.47;14.55;;;9.60;99.90;;;;;;5085957;28;20024;-75
2024/03/13 03:06:02;;;;;;;39.70;12.95;;;9.60;99.90;;;;;;5086407;28;20055;-74
2024/03/13 03:08:28;;;;;;;51.15;14.35;;;9.60;99.90;;;;;;5085919;28;20565;-74
2024/03/13 03:10:57;;;;;;;54.25;15.68;;;9.70;99.90;;;;;;5086322;28;20021;-75
2024/03/13 03:13:23;;;;;;;55.65;14.55;;;9.60;99.90;;;;;;5085683;28;20098;-75
2024/03/13 03:15:48;;;;;;;61.65;16.48;;;9.70;99.90;;;;;;5086252;28;20024;-75
2024/03/13 03:18:17;;;;;;;44.97;13.90;;;9.70;99.90;;;;;;5086293;28;20584;-75
2024/03/13 03:20:45;;;;;;;50.03;15.23;;;9.70;99.90;;;;;;5086080;28;20146;-74
2024/03/13 03:23:11;;;;;;;57.78;16.23;;;9.70;99.90;;;;;;5086166;28;20028;-75
2024/03/13 03:25:37;;;;;;;57.97;15.23;;;9.70;99.90;;;;;;5085318;28;20509;-74
2024/03/13 03:28:03;;;;;;;52.10;14.63;;;9.70;99.90;;;;;;5083406;28;20365;-75
2024/03/13 03:30:32;;;;;;;52.63;15.30;;;9.70;99.90;;;;;;5086242;28;20056;-75
2024/03/13 03:33:00;;;;;;;62.70;18.50;;;9.80;99.90;;;;;;5085459;28;20023;-74
2024/03/13 03:35:27;;;;;;;61.38;16.88;;;9.80;99.90;;;;;;5079851;28;20024;-74
2024/03/13 03:37:53;;;;;;;56.97;17.38;;;9.80;99.90;;;;;;5067605;28;20065;-75
2024/03/13 03:40:19;;;;;;;62.33;16.60;;;9.80;99.90;;;;;;5086368;28;20031;-74
2024/03/13 03:42:46;;;;;;;67.53;17.23;;;9.80;99.90;;;;;;5050795;28;20035;-74
2024/03/13 03:45:12;;;;;;;55.50;16.95;;;9.80;99.90;;;;;;5086338;28;20040;-74
2024/03/13 03:47:39;;;;;;;59.60;17.05;;;9.80;99.90;;;;;;5086663;28;20352;-74
2024/03/13 03:50:07;;;;;;;54.13;15.85;;;9.90;99.90;;;;;;5087834;28;20045;-73
2024/03/13 03:52:34;;;;;;;56.70;17.02;;;9.90;99.90;;;;;;5088438;28;20143;-72
2024/03/13 03:55:02;;;;;;;49.08;15.80;;;9.90;99.90;;;;;;5087858;28;20301;-74
2024/03/13 03:57:28;;;;;;;47.47;15.50;;;9.90;99.90;;;;;;5087250;28;20016;-74
2024/03/13 03:59:54;;;;;;;48.28;16.38;;;9.90;99.90;;;;;;5088161;28;20170;-74
2024/03/13 04:02:20;;;;;;;48.95;16.58;;;10.00;99.90;;;;;;5067827;28;20024;-75
2024/03/13 04:04:46;;;;;;;52.88;15.15;;;10.00;99.90;;;;;;5085741;28;20035;-74
2024/03/13 04:07:12;;;;;;;48.53;15.80;;;10.00;99.90;;;;;;5085717;28;20017;-74
2024/03/13 04:09:37;;;;;;;45.40;16.15;;;10.00;99.90;;;;;;5085575;28;20115;-74
2024/03/13 04:12:03;;;;;;;45.85;15.60;;;10.10;99.90;;;;;;5067181;28;20381;-73
2024/03/13 04:14:29;;;;;;;48.40;14.18;;;10.10;99.90;;;;;;5085687;28;20008;-73
2024/03/13 04:16:55;;;;;;;41.15;15.25;;;10.10;99.90;;;;;;5084925;28;20107;-73
2024/03/13 04:19:21;;;;;;;48.50;15.32;;;10.10;99.90;;;;;;5085750;28;20031;-75
2024/03/13 04:21:47;;;;;;;56.05;16.10;;;10.20;99.90;;;;;;5068388;28;20120;-71
2024/03/13 04:24:13;;;;;;;42.55;14.68;;;10.20;99.90;;;;;;5090020;28;20028;-73
2024/03/13 04:26:39;;;;;;;52.40;15.30;;;10.20;99.90;;;;;;5071971;28;20380;-75
2024/03/13 04:29:05;;;;;;;48.63;15.55;;;10.20;99.90;;;;;;5089172;28;20032;-75
2024/03/13 04:31:33;;;;;;;51.22;15.35;;;10.30;99.90;;;;;;5088738;28;20020;-74
2024/03/13 04:33:59;;;;;;;55.30;15.98;;;10.30;99.90;;;;;;5088858;28;20061;-75
2024/03/13 04:36:25;;;;;;;59.55;16.23;;;10.30;99.90;;;;;;5089541;28;20206;-74
2024/03/13 04:38:53;;;;;;;51.53;15.50;;;10.30;99.90;;;;;;5070545;28;20020;-75
2024/03/13 04:41:19;;;;;;;52.70;15.65;;;10.30;99.90;;;;;;5089447;28;20020;-73
2024/03/13 04:43:48;;;;;;;49.80;15.18;;;10.40;99.90;;;;;;5088481;28;20593;-73
2024/03/13 04:46:16;;;;;;;54.95;16.77;;;10.40;99.90;;;;;;5089350;28;20035;-73
2024/03/13 04:48:44;;;;;;;56.28;17.25;;;10.40;99.90;;;;;;5088339;28;20109;-73
2024/03/13 04:51:10;;;;;;;57.50;15.63;;;10.40;99.90;;;;;;5070708;28;20134;-73
2024/03/13 04:53:36;;;;;;;62.10;16.55;;;10.40;99.90;;;;;;5070166;28;20460;-72
2024/03/13 04:56:03;;;;;;;53.47;15.50;;;10.50;99.90;;;;;;5074797;28;20020;-73
2024/03/13 04:58:29;;;;;;;40.92;13.90;;;10.40;99.90;;;;;;5088353;28;20028;-73
2024/03/13 05:00:55;;;;;;;53.25;14.25;;;10.50;99.90;;;;;;5088991;28;20022;-73
2024/03/13 05:03:21;;;;;;;40.42;11.88;;;10.50;99.90;;;;;;5088871;28;20400;-73
2024/03/13 05:05:46;;;;;;;39.65;11.60;;;10.50;99.90;;;;;;5088730;28;20059;-73
2024/03/13 05:08:15;;;;;;;33.97;9.98;;;10.60;99.90;;;;;;5088900;28;20035;-72
2024/03/13 05:10:41;;;;;;;33.22;9.82;;;10.60;99.90;;;;;;5089794;28;20374;-72
2024/03/13 05:13:06;;;;;;;36.13;10.73;;;10.60;99.90;;;;;;5090228;28;20023;-73
2024/03/13 05:15:32;;;;;;;41.05;9.82;;;10.60;99.90;;;;;;5072656;28;20031;-72
2024/03/13 05:17:58;;;;;;;35.88;10.38;;;10.70;99.90;;;;;;5093761;28;20039;-72
2024/03/13 05:20:24;;;;;;;29.75;10.23;;;10.70;99.90;;;;;;5072441;28;20028;-73
2024/03/13 05:22:51;;;;;;;38.75;10.43;;;10.70;99.90;;;;;;5088119;28;20028;-73
2024/03/13 05:25:22;;;;;;;36.53;10.30;;;10.70;99.90;;;;;;5088543;28;20039;-73
2024/03/13 05:27:49;;;;;;;25.15;8.38;;;10.70;99.90;;;;;;5087574;28;20024;-73
2024/03/13 05:30:17;;;;;;;29.45;9.70;;;10.70;99.90;;;;;;5086782;28;20032;-73
2024/03/13 05:32:43;;;;;;;35.10;9.10;;;10.80;99.90;;;;;;5069227;28;20027;-74
2024/03/13 05:35:09;;;;;;;32.78;10.02;;;10.70;99.90;;;;;;5082236;28;20055;-73
2024/03/13 05:37:35;;;;;;;27.05;9.73;;;10.80;99.90;;;;;;5069484;28;20508;-73
2024/03/13 05:40:16;;;;;;;32.28;9.43;;;10.70;99.90;;;;;;5087937;28;20110;-73
2024/03/13 05:42:42;;;;;;;;;;;10.80;99.90;;;;;;5086720;28;20028;-73
2024/03/13 05:45:16;;;;;;;17.27;7.88;;;10.80;99.90;;;;;;5087847;28;19908;-73
2024/03/13 05:47:42;;;;;;;19.42;9.07;;;10.70;99.90;;;;;;5087446;28;20028;-73
2024/03/13 05:50:09;;;;;;;24.98;9.68;;;10.80;99.90;;;;;;5087788;28;20399;-73
2024/03/13 05:52:35;;;;;;;22.42;9.10;;;10.70;99.90;;;;;;5087429;28;20378;-74
2024/03/13 05:55:01;;;;;;;19.52;7.93;;;10.80;99.90;;;;;;5069940;28;20023;-74
2024/03/13 05:57:27;;;;;;;22.15;8.43;;;10.80;99.90;;;;;;5087729;28;20039;-73
2024/03/13 05:59:53;;;;;;;23.52;8.68;;;10.80;99.90;;;;;;5088680;28;20112;-74
2024/03/13 06:02:19;;;;;;;23.65;7.82;;;10.80;99.90;;;;;;5089307;28;20115;-73
2024/03/13 06:04:47;;;;;;;25.67;8.40;;;10.80;99.90;;;;;;5090445;28;20593;-72
2024/03/13 06:07:13;;;;;;;25.85;8.88;;;10.90;99.90;;;;;;5071385;28;20020;-73
2024/03/13 06:09:39;;;;;;;27.58;9.32;;;10.80;99.90;;;;;;5089910;28;20460;-72
2024/03/13 06:12:06;;;;;;;23.35;9.35;;;10.80;99.90;;;;;;5071753;28;20047;-70
2024/03/13 06:14:33;;;;;;;22.83;9.38;;;10.90;99.90;;;;;;5092321;28;20477;-73
2024/03/13 06:16:59;;;;;;;20.95;8.57;;;10.90;99.90;;;;;;5088407;28;20027;-73
2024/03/13 06:19:26;;;;;;;25.05;9.35;;;10.90;99.90;;;;;;5087570;28;20024;-73
2024/03/13 06:21:52;;;;;;;18.02;9.23;;;10.90;99.90;;;;;;5078911;28;20032;-73
2024/03/13 06:24:23;;;;;;;20.17;9.45;;;10.90;99.90;;;;;;5063159;28;20569;-73
2024/03/13 06:26:49;;;;;;;24.33;9.07;;;10.90;99.90;;;;;;5087357;28;20028;-73
2024/03/13 06:32:00;;;;;;;26.73;7.88;;;10.90;99.90;;;;;;5074917;28;20092;-73
2024/03/13 06:34:27;;;;;;;25.75;9.82;;;11.00;99.90;;;;;;5062684;28;20017;-73
2024/03/13 06:36:52;;;;;;;23.50;9.70;;;11.00;99.90;;;;;;5087084;28;20020;-73
2024/03/13 06:39:21;;;;;;;33.38;10.55;;;11.00;99.90;;;;;;5087257;28;20031;-73
2024/03/13 06:41:47;;;;;;;24.33;9.82;;;11.00;99.90;;;;;;5069087;28;20016;-73
2024/03/13 06:44:13;;;;;;;24.30;9.05;;;11.00;99.90;;;;;;5086665;28;20468;-73
2024/03/13 06:46:39;;;;;;;27.20;10.07;;;11.00;99.90;;;;;;5085619;28;20028;-73
2024/03/13 06:49:04;;;;;;;24.60;9.38;;;11.00;99.90;;;;;;5086288;28;20024;-73
2024/03/13 06:51:30;;;;;;;24.65;9.00;;;11.00;99.90;;;;;;5068507;28;20065;-73
2024/03/13 06:53:55;;;;;;;22.98;9.50;;;11.10;99.90;;;;;;5086449;28;20620;-73
2024/03/13 06:56:22;;;;;;;25.58;9.30;;;11.00;99.90;;;;;;5078016;28;20419;-73
2024/03/13 06:58:48;;;;;;;26.58;9.10;;;11.00;99.90;;;;;;5074812;28;20552;-72
2024/03/13 07:01:14;;;;;;;21.58;8.95;;;11.10;99.90;;;;;;5084334;28;20031;-74
2024/03/13 07:03:41;;;;;;;29.88;9.20;;;11.00;99.90;;;;;;5080364;28;20024;-73
2024/03/13 07:06:06;;;;;;;19.02;8.10;;;11.00;99.90;;;;;;5075753;28;20493;-75
2024/03/13 07:08:35;;;;;;;22.48;9.52;;;11.10;99.90;;;;;;5073759;28;20032;-75
2024/03/13 07:11:05;;;;;;;24.27;8.90;;;11.00;99.90;;;;;;5077592;28;20096;-74
2024/03/13 07:13:32;;;;;;;23.57;8.87;;;11.00;99.90;;;;;;5074917;28;20401;-75
2024/03/13 07:15:59;;;;;;;21.60;9.48;;;11.00;99.90;;;;;;5063201;28;20474;-74
2024/03/13 07:18:28;;;;;;;22.67;8.60;;;11.00;99.90;;;;;;5082440;28;20032;-73
2024/03/13 07:20:55;;;;;;;24.17;9.63;;;11.10;99.90;;;;;;5058566;28;20024;-75
2024/03/13 07:23:21;;;;;;;26.50;10.07;;;11.10;99.90;;;;;;5079447;28;20016;-75
2024/03/13 07:25:49;;;;;;;28.48;11.30;;;11.10;99.90;;;;;;5072829;28;20085;-75
2024/03/13 07:28:16;;;;;;;27.23;10.75;;;11.10;99.90;;;;;;5058009;28;20114;-75
2024/03/13 07:30:43;;;;;;;34.58;11.38;;;11.10;99.90;;;;;;5070753;28;20437;-72
2024/03/13 07:33:09;;;;;;;30.13;11.02;;;11.10;99.90;;;;;;5071020;28;20035;-72
2024/03/13 07:35:35;;;;;;;31.38;11.82;;;11.10;99.90;;;;;;5073718;28;20464;-75
2024/03/13 07:38:01;;;;;;;24.98;10.23;;;11.10;99.90;;;;;;5048625;28;20110;-74
2024/03/13 07:40:31;;;;;;;27.08;10.13;;;11.10;99.90;;;;;;5067835;28;20397;-74
2024/03/13 07:42:57;;;;;;;34.83;11.32;;;11.10;99.90;;;;;;5073508;28;20070;-75
2024/03/13 07:45:26;;;;;;;31.00;10.55;;;11.10;99.90;;;;;;5082056;28;20028;-75
2024/03/13 07:47:51;;;;;;;25.05;9.63;;;11.10;99.90;;;;;;5085606;28;20302;-75
2024/03/13 07:50:17;;;;;;;25.23;9.80;;;11.20;99.90;;;;;;5086052;28;20040;-75
2024/03/13 07:52:43;;;;;;;33.00;10.23;;;11.20;99.90;;;;;;5079898;28;20361;-75
2024/03/13 07:55:09;;;;;;;27.13;11.30;;;11.20;99.90;;;;;;5061984;28;20016;-76
2024/03/13 07:57:36;;;;;;;27.15;11.50;;;11.10;99.90;;;;;;5070997;28;20032;-74
2024/03/13 08:00:01;;;;;;;30.65;11.20;;;11.20;99.90;;;;;;5068343;28;20194;-74
2024/03/13 08:02:27;;;;;;;30.52;11.38;;;11.20;99.90;;;;;;5050666;28;20047;-74
2024/03/13 08:04:53;;;;;;;24.00;11.45;;;11.20;99.90;;;;;;5057190;28;20039;-74
2024/03/13 08:07:25;;;;;;;28.73;11.93;;;11.20;99.90;;;;;;5079820;28;20028;-71
2024/03/13 08:09:51;;;;;;;25.23;11.20;;;11.20;99.90;;;;;;5083950;28;20110;-71
2024/03/13 08:12:17;;;;;;;24.88;10.82;;;11.20;99.90;;;;;;5088029;28;20116;-73
2024/03/13 08:14:43;;;;;;;27.10;12.20;;;11.30;99.90;;;;;;5079431;28;20042;-73
2024/03/13 08:17:10;;;;;;;30.90;11.65;;;11.20;99.90;;;;;;5084296;28;20031;-73
2024/03/13 08:19:36;;;;;;;29.73;12.13;;;11.30;99.90;;;;;;5094316;28;20028;-72
2024/03/13 08:22:02;;;;;;;35.90;14.20;;;11.30;99.90;;;;;;5082355;28;20024;-74
2024/03/13 08:24:28;;;;;;;36.83;13.75;;;11.30;99.90;;;;;;5093281;28;20039;-73
2024/03/13 08:26:54;;;;;;;32.78;12.85;;;11.30;99.90;;;;;;5070108;28;20607;-74
2024/03/13 08:29:20;;;;;;;28.15;13.63;;;11.40;99.90;;;;;;5077754;28;20489;-74
2024/03/13 08:31:50;;;;;;;23.02;10.88;;;11.40;99.90;;;;;;5085733;28;20508;-73
2024/03/13 08:34:19;;;;;;;26.67;11.75;;;11.40;99.90;;;;;;5062223;28;20027;-74
2024/03/13 08:36:44;;;;;;;23.92;10.45;;;11.40;99.90;;;;;;5089185;28;20103;-74
2024/03/13 08:39:12;;;;;;;24.70;10.75;;;11.40;99.90;;;;;;5069425;28;20196;-74
2024/03/13 08:41:39;;;;;;;24.77;11.50;;;11.40;99.90;;;;;;5088781;28;20024;-73
2024/03/13 08:44:06;;;;;;;30.60;12.60;;;11.40;99.90;;;;;;5068570;28;20085;-73
2024/03/13 08:46:32;;;;;;;27.80;11.43;;;11.40;99.90;;;;;;5069592;28;20145;-73
2024/03/13 08:48:58;;;;;;;21.92;10.23;;;11.40;99.90;;;;;;5088052;28;20072;-74
2024/03/13 08:51:25;;;;;;;26.42;11.68;;;11.40;99.90;;;;;;5089248;28;20040;-74
2024/03/13 08:53:51;;;;;;;21.20;9.73;;;11.50;99.90;;;;;;5088543;28;20028;-74
2024/03/13 08:56:17;;;;;;;23.77;9.90;;;11.40;99.90;;;;;;5089137;28;20039;-74
2024/03/13 08:58:44;;;;;;;25.75;11.10;;;11.50;99.90;;;;;;5088082;28;20016;-74
2024/03/13 09:01:11;;;;;;;22.42;9.15;;;11.50;99.90;;;;;;5098770;28;20118;-74
2024/03/13 09:03:36;;;;;;;17.00;8.18;;;11.50;99.90;;;;;;5088163;28;20499;-74
2024/03/13 09:06:04;;;;;;;22.15;8.13;;;11.50;99.90;;;;;;5088508;28;20024;-74
2024/03/13 09:08:30;;;;;;;14.73;7.28;;;11.50;99.90;;;;;;5088063;28;20028;-73
2024/03/13 09:10:57;;;;;;;18.52;8.25;;;11.50;99.90;;;;;;5100664;28;20080;-74
2024/03/13 09:13:23;;;;;;;20.75;8.20;;;11.50;99.90;;;;;;5069926;28;20527;-73
2024/03/13 09:15:49;;;;;;;18.80;8.15;;;11.50;99.90;;;;;;5101424;28;20020;-74
2024/03/13 09:18:15;;;;;;;13.63;6.60;;;11.50;99.90;;;;;;5086704;28;20077;-74
2024/03/13 09:20:41;;;;;;;11.60;6.82;;;11.50;99.90;;;;;;5088305;28;20036;-73
2024/03/13 09:23:09;;;;;;;14.63;6.53;;;11.50;99.90;;;;;;5088161;28;20035;-73
2024/03/13 09:25:34;;;;;;;11.50;6.13;;;11.50;99.90;;;;;;5088791;28;20024;-72
2024/03/13 09:28:00;;;;;;;17.52;7.45;;;11.50;99.90;;;;;;5091346;28;20020;-73
2024/03/13 09:30:26;;;;;;;16.45;7.10;;;11.50;99.90;;;;;;5088223;28;20028;-73
2024/03/13 09:32:52;;;;;;;13.63;6.38;;;11.60;99.90;;;;;;5087812;28;20031;-73
2024/03/13 09:35:18;;;;;;;12.45;6.35;;;11.60;99.90;;;;;;5064883;28;20073;-73
2024/03/13 09:37:43;;;;;;;12.40;6.18;;;11.60;99.90;;;;;;5088731;28;20051;-73
2024/03/13 09:40:16;;;;;;;16.20;7.43;;;11.70;99.90;;;;;;5089243;28;20074;-73
2024/03/13 09:42:53;;;;;;;12.57;6.65;;;11.70;99.90;;;;;;5091876;28;20046;-72
2024/03/13 09:45:24;;;;;;;14.73;6.60;;;11.80;99.90;;;;;;5092445;28;20031;-73
2024/03/13 09:47:54;;;;;;;14.55;7.50;;;11.80;99.90;;;;;;5087469;28;20026;-74
2024/03/13 09:50:23;;;;;;;16.30;7.15;;;11.80;99.90;;;;;;5088099;28;20040;-74
2024/03/13 09:52:49;;;;;;;13.23;6.90;;;11.80;99.90;;;;;;5088812;28;20028;-74
2024/03/13 09:55:18;;;;;;;13.75;7.70;;;11.90;99.90;;;;;;5084371;28;20512;-74
2024/03/13 09:57:46;;;;;;;11.63;6.97;;;11.90;99.90;;;;;;5085348;28;20660;-73
2024/03/13 10:00:13;;;;;;;15.70;7.38;;;11.90;99.90;;;;;;5079446;28;20504;-74
2024/03/13 10:02:42;;;;;;;17.85;7.82;;;11.90;99.90;;;;;;5088289;28;20492;-74
2024/03/13 10:05:14;;;;;;;21.20;10.48;;;11.90;99.90;;;;;;5094701;28;20051;-73
2024/03/13 10:07:41;;;;;;;17.08;10.10;;;11.90;99.90;;;;;;5084738;28;20032;-74
2024/03/13 10:10:33;;;;;;;24.45;10.93;;;11.90;99.90;;;;;;5068676;28;20386;-72
2024/03/13 10:13:01;;;;;;;26.15;11.90;;;11.90;99.90;;;;;;5084848;28;20032;-71
2024/03/13 10:15:29;;;;;;;31.67;12.63;;;11.90;99.90;;;;;;5089879;28;20020;-72
2024/03/13 10:18:17;;;;;;;28.52;13.32;;;11.90;99.90;;;;;;5074234;28;20023;-73
2024/03/13 10:20:47;;;;;;;30.25;14.85;;;11.80;99.90;;;;;;5078837;28;20081;-72
2024/03/13 10:23:16;;;;;;;31.83;15.98;;;11.80;99.90;;;;;;5089230;28;20516;-73
2024/03/13 10:25:44;;;;;;;40.80;16.67;;;11.80;99.90;;;;;;5065570;28;20027;-73
2024/03/13 10:28:13;;;;;;;40.00;18.13;;;11.80;99.90;;;;;;5058995;28;20047;-73
2024/03/13 10:30:39;;;;;;;43.95;18.42;;;11.80;99.90;;;;;;5077882;28;20028;-73
2024/03/13 10:33:06;;;;;;;41.28;19.70;;;11.80;99.90;;;;;;5087965;28;20301;-73
2024/03/13 10:35:31;;;;;;;47.28;19.27;;;11.70;99.90;;;;;;5053226;28;20673;-73
2024/03/13 10:37:58;;;;;;;46.10;19.60;;;11.70;99.90;;;;;;5064812;28;20081;-73
2024/03/13 10:40:25;;;;;;;48.20;18.80;;;11.70;99.90;;;;;;5087027;28;20493;-73
2024/03/13 10:42:50;;;;;;;45.67;19.98;;;11.70;99.90;;;;;;5088258;28;20040;-73
2024/03/13 10:45:16;;;;;;;41.60;18.20;;;11.70;99.90;;;;;;5090926;28;20032;-72
2024/03/13 10:47:42;;;;;;;44.42;19.00;;;11.70;99.90;;;;;;5082425;28;20476;-73
2024/03/13 10:50:12;;;;;;;43.97;18.33;;;11.70;99.90;;;;;;5060193;28;20062;-73
2024/03/13 10:52:39;;;;;;;40.22;17.20;;;11.70;99.90;;;;;;5062239;28;20040;-72
2024/03/13 10:55:07;;;;;;;34.67;17.33;;;11.70;99.90;;;;;;5074106;28;20032;-73
2024/03/13 10:57:36;;;;;;;33.42;14.93;;;11.70;99.90;;;;;;5059248;28;20505;-73
2024/03/13 11:00:10;;;;;;;37.13;16.08;;;11.80;99.90;;;;;;5062777;28;20025;-73
2024/03/13 11:02:39;;;;;;;36.25;17.27;;;11.90;99.90;;;;;;5066067;28;20024;-72
2024/03/13 11:05:10;;;;;;;36.80;16.38;;;11.90;99.90;;;;;;5086146;28;20111;-72
2024/03/13 11:07:35;;;;;;;27.67;14.30;;;11.90;99.90;;;;;;5085962;28;20027;-74
2024/03/13 11:10:01;;;;;;;30.45;13.60;;;11.90;99.90;;;;;;5077057;28;20024;-73
2024/03/13 11:12:31;;;;;;;30.15;15.38;;;12.00;99.90;;;;;;5086732;28;20107;-73
2024/03/13 11:15:00;;;;;;;30.13;14.15;;;12.00;99.90;;;;;;5085953;28;20024;-73
2024/03/13 11:17:28;;;;;;;29.15;14.25;;;12.00;99.90;;;;;;5085732;28;20035;-73
2024/03/13 11:20:06;;;;;;;26.92;14.25;;;12.10;99.90;;;;;;5096139;28;20058;-73
2024/03/13 11:22:34;;;;;;;25.85;14.25;;;12.10;99.90;;;;;;5066235;28;20058;-72
2024/03/13 11:25:05;;;;;;;28.25;14.65;;;12.20;99.90;;;;;;5081488;28;20189;-73
2024/03/13 11:27:33;;;;;;;30.00;14.75;;;12.20;99.90;;;;;;5072430;28;20473;-73
2024/03/13 11:30:03;;;;;;;32.55;14.95;;;12.20;99.90;;;;;;5088981;28;20481;-73
2024/03/13 11:32:30;;;;;;;27.45;14.63;;;12.20;99.90;;;;;;5068545;28;20050;-73
2024/03/13 11:34:57;;;;;;;30.33;15.10;;;12.20;99.90;;;;;;5059417;28;20367;-74
2024/03/13 11:37:23;;;;;;;29.23;15.25;;;12.20;99.90;;;;;;5080002;28;20016;-72
2024/03/13 11:39:54;;;;;;;25.98;14.90;;;12.20;99.90;;;;;;5082964;28;20449;-74
2024/03/13 11:42:29;;;;;;;29.73;15.82;;;12.20;99.90;;;;;;5082585;28;20398;-73
2024/03/13 11:45:23;;;;;;;26.27;14.38;;;12.20;99.90;;;;;;5055844;28;20073;-73
2024/03/13 11:47:55;;;;;;;26.40;14.10;;;12.30;99.90;;;;;;5078187;28;20030;-74
2024/03/13 11:50:21;;;;;;;23.58;13.05;;;12.30;99.90;;;;;;5078825;28;20090;-74
2024/03/13 11:53:14;;;;;;;28.83;15.60;;;12.20;99.90;;;;;;5085272;28;20020;-74
2024/03/13 11:55:41;;;;;;;28.45;16.35;;;12.20;99.90;;;;;;5086283;28;20027;-74
2024/03/13 11:58:21;;;;;;;30.17;16.08;;;12.20;99.90;;;;;;5084438;28;20016;-75
2024/03/13 12:00:48;;;;;;;29.17;16.98;;;12.20;99.90;;;;;;5090082;28;20149;-75
2024/03/13 12:03:14;;;;;;;29.30;16.40;;;12.20;99.90;;;;;;5075972;28;20094;-74
2024/03/13 12:05:40;;;;;;;28.40;16.75;;;12.20;99.90;;;;;;5075407;28;20772;-74
2024/03/13 12:08:08;;;;;;;25.48;16.17;;;12.20;99.90;;;;;;5082535;28;20082;-71
2024/03/13 12:10:34;;;;;;;29.00;16.85;;;12.20;99.90;;;;;;5058221;28;20538;-74
2024/03/13 12:13:15;;;;;;;29.63;17.92;;;12.20;99.90;;;;;;5074296;28;20489;-74
2024/03/13 12:15:44;;;;;;;;;;;12.10;99.90;;;;;;5086050;28;20078;-72
2024/03/13 12:18:13;;;;;;;31.73;17.85;;;12.20;99.90;;;;;;5076010;28;19936;-73
2024/03/13 12:20:43;;;;;;;29.50;17.60;;;12.10;99.90;;;;;;5089338;28;20075;-73
2024/03/13 12:23:13;;;;;;;26.35;16.88;;;12.10;99.90;;;;;;5080526;28;20031;-75
2024/03/13 12:25:42;;;;;;;26.67;17.02;;;12.10;99.90;;;;;;5080202;28;20094;-73
2024/03/13 12:28:20;;;;;;;32.20;19.17;;;12.20;99.90;;;;;;5079439;28;20036;-73
2024/03/13 12:30:48;;;;;;;32.95;17.67;;;12.20;99.90;;;;;;5091508;28;20128;-73
2024/03/13 12:33:14;;;;;;;33.78;19.00;;;12.20;99.90;;;;;;5084973;28;20043;-72
2024/03/13 12:35:40;;;;;;;33.10;19.15;;;12.20;99.90;;;;;;5086216;28;20422;-73
2024/03/13 12:38:06;;;;;;;31.95;19.23;;;12.30;99.90;;;;;;5077220;28;20025;-73
2024/03/13 12:40:34;;;;;;;32.33;18.27;;;12.30;99.90;;;;;;5069996;28;20032;-74
2024/03/13 12:43:04;;;;;;;29.15;18.15;;;12.30;99.90;;;;;;5077092;28;20501;-73
2024/03/13 12:45:29;;;;;;;36.55;19.95;;;12.30;99.90;;;;;;5056005;28;20035;-72
2024/03/13 12:47:56;;;;;;;27.13;18.13;;;12.30;99.90;;;;;;5071110;28;20420;-73
2024/03/13 12:50:21;;;;;;;33.22;18.98;;;12.30;99.90;;;;;;5071205;28;20059;-73
2024/03/13 12:52:49;;;;;;;32.55;19.83;;;12.40;99.90;;;;;;5067925;28;20099;-72
2024/03/13 12:55:22;;;;;;;35.25;17.77;;;12.40;99.90;;;;;;5079554;28;20466;-71
2024/03/13 12:57:48;;;;;;;34.38;18.92;;;12.40;99.90;;;;;;5070236;28;20028;-73